createdAt,value
2019-06-08T00:01:16.736Z,100586.53
2019-06-08T00:03:43.147Z,100548.27
2019-06-08T00:06:09.735Z,100550.66
2019-06-08T00:08:35.601Z,100567.44
2019-06-08T00:11:01.510Z,100601.62
2019-06-08T00:13:27.970Z,100647.65
2019-06-08T00:15:53.851Z,100668.94
2019-06-08T00:18:19.787Z,100692.36
2019-06-08T00:20:45.673Z,100698.66
2019-06-08T00:23:11.543Z,100712.03
2019-06-08T00:25:37.882Z,100694.31
2019-06-08T00:28:03.739Z,100701.64
2019-06-08T00:30:30.711Z,100702.97
2019-06-08T00:32:57.039Z,100704.45
2019-06-08T00:35:22.988Z,100692.78
2019-06-08T00:37:49.464Z,100699.77
2019-06-08T00:40:15.713Z,100689.94
2019-06-08T00:42:42.948Z,100683.72
2019-06-08T00:45:09.013Z,100696.19
2019-06-08T00:47:47.066Z,100689.94
2019-06-08T00:50:05.272Z,100686.40
2019-06-08T00:52:31.156Z,100693.25
2019-06-08T00:54:57.016Z,100705.34
2019-06-08T00:57:23.849Z,100703.98
2019-06-08T00:59:49.823Z,100698.02
2019-06-08T01:02:15.746Z,100689.08
2019-06-08T01:04:41.946Z,100688.19
2019-06-08T01:07:07.837Z,100685.80
2019-06-08T01:09:33.704Z,100688.23
2019-06-08T01:11:59.599Z,100704.23
2019-06-08T01:14:25.457Z,100710.23
2019-06-08T01:16:51.456Z,100721.05
2019-06-08T01:19:17.331Z,100717.80
2019-06-08T01:21:43.393Z,100695.72
2019-06-08T01:24:09.263Z,100683.20
2019-06-08T01:26:35.153Z,100680.61
2019-06-08T01:29:01.673Z,100680.48
2019-06-08T01:31:28.356Z,100675.72
2019-06-08T01:33:54.348Z,100683.42
2019-06-08T01:36:20.687Z,100684.90
2019-06-08T01:38:46.732Z,100698.77
2019-06-08T01:41:12.596Z,100693.78
2019-06-08T01:43:39.215Z,100680.63
2019-06-08T01:46:05.675Z,100664.00
2019-06-08T01:48:32.353Z,100696.88
2019-06-08T01:50:58.365Z,100659.05
2019-06-08T01:53:24.892Z,100677.22
2019-06-08T01:55:50.756Z,100658.57
2019-06-08T01:58:17.321Z,100670.94
2019-06-08T02:00:43.276Z,100657.38
2019-06-08T02:03:09.198Z,100649.69
2019-06-08T02:05:35.074Z,100630.38
2019-06-08T02:08:00.962Z,100656.95
2019-06-08T02:10:26.946Z,100610.81
2019-06-08T02:12:52.842Z,100639.31
2019-06-08T02:15:19.212Z,100654.77
2019-06-08T02:17:45.418Z,100620.97
2019-06-08T02:20:13.376Z,100675.16
2019-06-08T02:22:39.448Z,100683.97
2019-06-08T02:25:06.320Z,100675.91
2019-06-08T02:27:33.572Z,100673.94
2019-06-08T02:29:59.491Z,100666.78
2019-06-08T02:32:25.383Z,100667.14
2019-06-08T02:34:51.247Z,100666.30
2019-06-08T02:37:17.120Z,100643.93
2019-06-08T02:39:43.031Z,100646.00
2019-06-08T02:42:08.884Z,100659.18
2019-06-08T02:44:36.290Z,100661.90
2019-06-08T02:47:02.315Z,100676.50
2019-06-08T02:49:29.106Z,100681.84
2019-06-08T02:51:55.171Z,100687.23
2019-06-08T02:54:21.553Z,100672.00
2019-06-08T02:56:47.829Z,100689.38
2019-06-08T02:59:14.405Z,100695.70
2019-06-08T03:01:40.839Z,100695.41
2019-06-08T03:04:06.824Z,100709.14
2019-06-08T03:06:35.085Z,100704.77
2019-06-08T03:09:04.169Z,100704.34
2019-06-08T03:11:30.537Z,100706.44
2019-06-08T03:13:56.512Z,100714.20
2019-06-08T03:16:22.378Z,100707.49
2019-06-08T03:18:48.260Z,100707.80
2019-06-08T03:21:14.119Z,100714.38
2019-06-08T03:23:41.513Z,100700.57
2019-06-08T03:26:07.875Z,100708.70
2019-06-08T03:28:35.607Z,100705.98
2019-06-08T03:31:01.523Z,100698.61
2019-06-08T03:33:27.675Z,100703.57
2019-06-08T03:35:57.581Z,100705.54
2019-06-08T03:38:21.378Z,100709.31
2019-06-08T03:40:47.234Z,100710.06
2019-06-08T03:43:13.097Z,100707.80
2019-06-08T03:45:40.660Z,100701.55
2019-06-08T03:48:06.649Z,100705.24
2019-06-08T03:50:32.535Z,100696.11
2019-06-08T03:52:58.394Z,100691.89
2019-06-08T03:55:24.284Z,100678.52
2019-06-08T03:57:50.275Z,100684.87
2019-06-08T04:00:16.361Z,100694.07
2019-06-08T04:02:43.734Z,100704.13
2019-06-08T04:05:10.283Z,100701.41
2019-06-08T04:07:37.583Z,100684.26
2019-06-08T04:10:04.730Z,100699.13
2019-06-08T04:12:30.590Z,100701.61
2019-06-08T04:14:56.481Z,100693.93
2019-06-08T04:17:22.381Z,100690.46
2019-06-08T04:20:09.069Z,100676.70
2019-06-08T04:22:15.991Z,100692.84
2019-06-08T04:24:42.429Z,100686.42
2019-06-08T04:27:08.731Z,100690.89
2019-06-08T04:29:34.627Z,100693.54
2019-06-08T04:32:00.483Z,100690.15
2019-06-08T04:34:26.400Z,100699.42
2019-06-08T04:36:52.244Z,100698.82
2019-06-08T04:39:18.629Z,100701.67
2019-06-08T04:41:45.411Z,100695.59
2019-06-08T04:44:12.258Z,100693.45
2019-06-08T04:46:38.302Z,100698.07
2019-06-08T04:49:04.250Z,100702.52
2019-06-08T04:51:30.105Z,100694.00
2019-06-08T04:53:56.029Z,100700.55
2019-06-08T04:56:21.921Z,100705.68
2019-06-08T04:58:48.986Z,100705.31
2019-06-08T05:01:15.582Z,100699.44
2019-06-08T05:03:43.303Z,100704.86
2019-06-08T05:06:09.250Z,100713.99
2019-06-08T05:08:35.134Z,100724.42
2019-06-08T05:11:01.029Z,100743.88
2019-06-08T05:13:26.893Z,100743.81
2019-06-08T05:15:52.773Z,100739.05
2019-06-08T05:18:18.648Z,100739.20
2019-06-08T05:20:47.237Z,100731.55
2019-06-08T05:23:12.290Z,100728.34
2019-06-08T05:25:39.096Z,100745.00
2019-06-08T05:28:05.033Z,100753.00
2019-06-08T05:30:30.916Z,100754.51
2019-06-08T05:32:56.778Z,100757.42
2019-06-08T05:35:22.696Z,100761.36
2019-06-08T05:37:49.718Z,100756.52
2019-06-08T05:40:15.969Z,100748.05
2019-06-08T05:42:42.773Z,100738.59
2019-06-08T05:45:09.782Z,100737.27
2019-06-08T05:47:35.760Z,100729.95
2019-06-08T05:50:03.820Z,100744.79
2019-06-08T05:52:29.706Z,100763.05
2019-06-08T05:54:55.574Z,100770.78
2019-06-08T05:57:21.461Z,100776.03
2019-06-08T05:59:48.158Z,100767.03
2019-06-08T06:02:14.142Z,100765.55
2019-06-08T06:04:40.872Z,100763.66
2019-06-08T06:07:06.890Z,100762.16
2019-06-08T06:09:32.964Z,100763.58
2019-06-08T06:11:58.844Z,100749.02
2019-06-08T06:14:24.701Z,100749.54
2019-06-08T06:16:51.341Z,100751.42
2019-06-08T06:19:17.255Z,100742.27
2019-06-08T06:21:43.150Z,100741.96
2019-06-08T06:24:09.003Z,100754.39
2019-06-08T06:26:34.892Z,100773.09
2019-06-08T06:29:00.760Z,100772.75
2019-06-08T06:31:26.736Z,100792.70
2019-06-08T06:33:52.599Z,100792.70
2019-06-08T06:36:18.473Z,100796.27
2019-06-08T06:38:45.829Z,100807.55
2019-06-08T06:41:11.827Z,100809.80
2019-06-08T06:43:37.714Z,100809.24
2019-06-08T06:46:03.571Z,100820.58
2019-06-08T06:48:29.456Z,100827.98
2019-06-08T06:50:55.320Z,100832.23
2019-06-08T06:53:21.196Z,100820.14
2019-06-08T06:55:47.057Z,100826.13
2019-06-08T06:58:12.946Z,100827.80
2019-06-08T07:00:38.812Z,100829.50
2019-06-08T07:03:04.754Z,100831.16
2019-06-08T07:05:30.602Z,100836.27
2019-06-08T07:07:56.585Z,100837.64
2019-06-08T07:10:22.445Z,100838.47
2019-06-08T07:12:48.666Z,100845.75
2019-06-08T07:15:18.389Z,100842.56
2019-06-08T07:17:44.271Z,100848.17
2019-06-08T07:20:10.229Z,100846.16
2019-06-08T07:22:36.118Z,100847.33
2019-06-08T07:25:02.879Z,100847.16
2019-06-08T07:27:28.776Z,100840.42
2019-06-08T07:29:54.882Z,100851.94
2019-06-08T07:32:20.806Z,100838.78
2019-06-08T07:34:47.815Z,100848.48
2019-06-08T07:37:14.470Z,100846.31
2019-06-08T07:39:40.363Z,100852.25
2019-06-08T07:42:06.228Z,100843.83
2019-06-08T07:44:32.109Z,100848.90
2019-06-08T07:46:57.970Z,100866.06
2019-06-08T07:49:23.857Z,100871.48
2019-06-08T07:52:06.001Z,100869.53
2019-06-08T07:54:17.513Z,100878.05
2019-06-08T07:56:43.375Z,100865.42
2019-06-08T07:59:09.263Z,100870.91
2019-06-08T08:01:36.503Z,100869.62
2019-06-08T08:04:02.645Z,100870.16
2019-06-08T08:06:30.581Z,100867.22
2019-06-08T08:08:56.861Z,100865.86
2019-06-08T08:11:23.537Z,100876.61
2019-06-08T08:13:51.149Z,100872.80
2019-06-08T08:16:17.200Z,100875.34
2019-06-08T08:18:43.083Z,100880.74
2019-06-08T08:21:21.387Z,100875.35
2019-06-08T08:23:38.242Z,100881.52
2019-06-08T08:26:04.201Z,100887.59
2019-06-08T08:28:30.110Z,100890.30
2019-06-08T08:30:58.593Z,100891.45
2019-06-08T08:33:23.741Z,100887.56
2019-06-08T08:35:51.116Z,100898.27
2019-06-08T08:38:17.786Z,100901.08
2019-06-08T08:40:43.683Z,100904.78
2019-06-08T08:43:09.729Z,100912.42
2019-06-08T08:45:37.346Z,100923.76
2019-06-08T08:48:21.200Z,100912.77
2019-06-08T08:50:31.082Z,100915.49
2019-06-08T08:53:00.308Z,100926.11
2019-06-08T08:55:24.862Z,100927.15
2019-06-08T08:57:52.152Z,100924.89
2019-06-08T09:00:18.911Z,100921.02
2019-06-08T09:02:44.798Z,100933.13
2019-06-08T09:05:11.021Z,100931.20
2019-06-08T09:07:38.564Z,100940.94
2019-06-08T09:10:05.234Z,100937.75
2019-06-08T09:12:31.596Z,100942.08
2019-06-08T09:15:00.218Z,100941.89
2019-06-08T09:17:27.876Z,100950.77
2019-06-08T09:19:54.073Z,100946.09
2019-06-08T09:22:20.680Z,100961.63
2019-06-08T09:24:48.563Z,100966.23
2019-06-08T09:27:14.558Z,100975.88
2019-06-08T09:29:40.903Z,100973.05
2019-06-08T09:32:08.172Z,100973.95
2019-06-08T09:34:35.321Z,100974.91
2019-06-08T09:37:02.954Z,100978.48
2019-06-08T09:39:29.229Z,100987.38
2019-06-08T09:41:58.198Z,100987.13
2019-06-08T09:44:23.123Z,100994.84
2019-06-08T09:46:48.998Z,100996.27
2019-06-08T09:49:15.565Z,100988.44
2019-06-08T09:51:41.452Z,100993.13
2019-06-08T09:54:11.741Z,100996.39
2019-06-08T09:56:37.808Z,100996.58
2019-06-08T09:59:06.098Z,101002.13
2019-06-08T10:01:31.253Z,101007.42
2019-06-08T10:04:00.824Z,101012.63
2019-06-08T10:06:24.990Z,101011.62
2019-06-08T10:08:50.856Z,101013.03
2019-06-08T10:11:16.779Z,101007.83
2019-06-08T10:13:43.500Z,101018.84
2019-06-08T10:16:10.449Z,101030.20
2019-06-08T10:18:38.591Z,101022.09
2019-06-08T10:21:06.142Z,101020.20
2019-06-08T10:23:34.715Z,101029.40
2019-06-08T10:26:01.372Z,101045.34
2019-06-08T10:28:28.997Z,101034.94
2019-06-08T10:30:56.048Z,101038.77
2019-06-08T10:33:23.050Z,101050.65
2019-06-08T10:35:48.949Z,101053.89
2019-06-08T10:38:14.847Z,101051.47
2019-06-08T10:41:07.118Z,101052.92
2019-06-08T10:43:28.883Z,101061.86
2019-06-08T10:45:54.721Z,101054.48
2019-06-08T10:48:20.611Z,101067.41
2019-06-08T10:50:47.497Z,101063.83
2019-06-08T10:53:16.312Z,101068.63
2019-06-08T10:55:41.326Z,101061.80
2019-06-08T10:58:09.563Z,101063.48
2019-06-08T11:00:34.951Z,101072.25
2019-06-08T11:03:03.244Z,101066.05
2019-06-08T11:05:28.635Z,101070.14
2019-06-08T11:07:54.526Z,101075.52
2019-06-08T11:10:20.401Z,101005.29
2019-06-08T11:12:48.372Z,101079.23
2019-06-08T11:15:14.130Z,101088.20
2019-06-08T11:17:40.014Z,101091.98
2019-06-08T11:20:07.408Z,101088.63
2019-06-08T11:22:33.786Z,101100.44
2019-06-08T11:25:00.750Z,101092.82
2019-06-08T11:27:28.497Z,101097.38
2019-06-08T11:29:54.511Z,101100.15
2019-06-08T11:32:20.385Z,101102.42
2019-06-08T11:34:48.669Z,101102.09
2019-06-08T11:37:18.521Z,101101.36
2019-06-08T11:39:41.803Z,101104.59
2019-06-08T11:42:10.661Z,101117.97
2019-06-08T11:44:35.490Z,101120.50
2019-06-08T11:47:02.538Z,101117.73
2019-06-08T11:49:28.478Z,101110.00
2019-06-08T11:51:54.376Z,101121.92
2019-06-08T11:54:33.231Z,101134.54
2019-06-08T11:56:49.899Z,101124.13
2019-06-08T11:59:15.984Z,101124.83
2019-06-08T12:01:41.883Z,101128.83
2019-06-08T12:04:08.178Z,101132.96
2019-06-08T12:06:34.130Z,101131.68
2019-06-08T12:09:00.311Z,101138.94
2019-06-08T12:11:28.026Z,101137.41
2019-06-08T12:13:53.988Z,101145.36
2019-06-08T12:16:22.286Z,101157.03
2019-06-08T12:18:49.290Z,101144.23
2019-06-08T12:21:15.399Z,101150.45
2019-06-08T12:23:41.295Z,101147.41
2019-06-08T12:26:08.177Z,101155.51
2019-06-08T12:28:34.148Z,101150.69
2019-06-08T12:31:01.097Z,101146.84
2019-06-08T12:33:30.347Z,101152.09
2019-06-08T12:35:54.865Z,101147.84
2019-06-08T12:38:20.752Z,101152.98
2019-06-08T12:40:48.560Z,101158.19
2019-06-08T12:43:15.756Z,101155.59
2019-06-08T12:45:41.901Z,101162.42
2019-06-08T12:48:10.326Z,101152.91
2019-06-08T12:50:35.665Z,101153.25
2019-06-08T12:53:02.248Z,101167.38
2019-06-08T12:55:28.196Z,101161.03
2019-06-08T12:57:55.000Z,101158.67
2019-06-08T13:00:21.729Z,101165.28
2019-06-08T13:02:51.017Z,101164.08
2019-06-08T13:05:21.118Z,101159.81
2019-06-08T13:07:47.394Z,101159.08
2019-06-08T13:10:13.257Z,101154.38
2019-06-08T13:12:40.967Z,101163.88
2019-06-08T13:15:08.442Z,101162.70
2019-06-08T13:17:34.933Z,101171.81
2019-06-08T13:20:00.818Z,101168.84
2019-06-08T13:22:29.037Z,101165.09
2019-06-08T13:24:54.543Z,101172.66
2019-06-08T13:27:22.789Z,101169.91
2019-06-08T13:29:48.928Z,101183.45
2019-06-08T13:32:16.512Z,101174.03
2019-06-08T13:34:44.315Z,101178.09
2019-06-08T13:37:10.582Z,101187.97
2019-06-08T13:39:39.887Z,101182.36
2019-06-08T13:42:07.767Z,101175.17
2019-06-08T13:44:37.686Z,101185.48
2019-06-08T13:47:03.481Z,101179.81
2019-06-08T13:49:30.869Z,101183.89
2019-06-08T13:51:58.406Z,101176.84
2019-06-08T13:54:24.440Z,101179.72
2019-06-08T13:56:50.687Z,101179.45
2019-06-08T13:59:23.092Z,101181.03
2019-06-08T14:01:47.788Z,101175.84
2019-06-08T14:04:15.020Z,101191.20
2019-06-08T14:06:44.929Z,101179.37
2019-06-08T14:09:10.797Z,101185.59
2019-06-08T14:11:36.658Z,101186.75
2019-06-08T14:14:02.651Z,101194.94
2019-06-08T14:16:29.727Z,101189.06
2019-06-08T14:18:55.803Z,101181.69
2019-06-08T14:21:29.432Z,101187.04
2019-06-08T14:23:49.529Z,101183.11
2019-06-08T14:26:15.385Z,101180.52
2019-06-08T14:28:41.292Z,101177.88
2019-06-08T14:31:08.120Z,101188.72
2019-06-08T14:33:34.931Z,101171.88
2019-06-08T14:36:01.602Z,101178.81
2019-06-08T14:38:35.184Z,101179.23
2019-06-08T14:40:55.292Z,101189.57
2019-06-08T14:43:21.306Z,101196.42
2019-06-08T14:45:47.572Z,101199.44
2019-06-08T14:48:13.703Z,101200.27
2019-06-08T14:50:41.013Z,101192.47
2019-06-08T14:53:08.632Z,101186.92
2019-06-08T14:55:34.694Z,101186.63
2019-06-08T14:58:00.519Z,101185.97
2019-06-08T15:00:27.768Z,101184.86
2019-06-08T15:02:53.789Z,101190.55
2019-06-08T15:05:19.992Z,101193.42
2019-06-08T15:07:47.798Z,101185.59
2019-06-08T15:10:14.051Z,101200.08
2019-06-08T15:12:39.920Z,101208.70
2019-06-08T15:15:08.310Z,101204.55
2019-06-08T15:17:33.775Z,101198.76
2019-06-08T15:19:59.666Z,101187.29
2019-06-08T15:22:26.812Z,101184.67
2019-06-08T15:24:53.323Z,101181.94
2019-06-08T15:27:22.638Z,101180.98
2019-06-08T15:29:47.808Z,101178.57
2019-06-08T15:32:13.728Z,101185.75
2019-06-08T15:34:39.614Z,101183.63
2019-06-08T15:37:05.476Z,101185.92
2019-06-08T15:39:33.879Z,101188.47
2019-06-08T15:42:00.212Z,101187.58
2019-06-08T15:44:28.642Z,101200.16
2019-06-08T15:46:54.001Z,101191.73
2019-06-08T15:49:19.959Z,101200.53
2019-06-08T15:51:47.982Z,101216.89
2019-06-08T15:54:13.605Z,101196.04
2019-06-08T15:56:48.566Z,101194.16
2019-06-08T15:59:09.239Z,101199.38
2019-06-08T16:01:35.016Z,101206.91
2019-06-08T16:04:03.956Z,101208.15
2019-06-08T16:06:29.673Z,101214.39
2019-06-08T16:08:55.574Z,101223.02
2019-06-08T16:11:21.432Z,101229.02
2019-06-08T16:13:47.320Z,101220.22
2019-06-08T16:16:13.183Z,101220.52
2019-06-08T16:18:39.068Z,101231.86
2019-06-08T16:21:04.928Z,101224.42
2019-06-08T16:23:31.808Z,101227.23
2019-06-08T16:25:57.776Z,101227.99
2019-06-08T16:28:23.664Z,101235.62
2019-06-08T16:30:49.524Z,101239.17
2019-06-08T16:33:15.411Z,101228.93
2019-06-08T16:35:41.279Z,101235.77
2019-06-08T16:38:07.175Z,101244.56
2019-06-08T16:40:34.273Z,101246.17
2019-06-08T16:43:00.253Z,101256.69
2019-06-08T16:45:26.986Z,101251.63
2019-06-08T16:47:52.924Z,101274.14
2019-06-08T16:50:24.487Z,101267.91
2019-06-08T16:52:46.653Z,101263.05
2019-06-08T16:55:12.550Z,101256.21
2019-06-08T16:57:41.098Z,101263.81
2019-06-08T17:00:30.073Z,101269.83
2019-06-08T17:02:35.123Z,101266.91
2019-06-08T17:05:01.682Z,101266.77
2019-06-08T17:07:27.740Z,101266.32
2019-06-08T17:09:53.637Z,101274.71
2019-06-08T17:12:19.500Z,101280.56
2019-06-08T17:14:45.392Z,101271.66
2019-06-08T17:17:11.258Z,101278.54
2019-06-08T17:19:38.293Z,101279.45
2019-06-08T17:22:04.660Z,101277.53
2019-06-08T17:24:30.548Z,101289.42
2019-06-08T17:26:56.768Z,101281.84
2019-06-08T17:29:22.657Z,101282.35
2019-06-08T17:31:48.619Z,101284.94
2019-06-08T17:34:14.513Z,101289.28
2019-06-08T17:36:40.717Z,101285.33
2019-06-08T17:39:06.679Z,101288.52
2019-06-08T17:41:32.549Z,101300.23
2019-06-08T17:43:58.430Z,101301.78
2019-06-08T17:46:24.290Z,101316.65
2019-06-08T17:48:50.154Z,101298.11
2019-06-08T17:51:16.039Z,101309.76
2019-06-08T17:53:43.304Z,101311.48
2019-06-08T17:56:09.494Z,101318.77
2019-06-08T17:58:35.361Z,101312.33
2019-06-08T18:01:01.244Z,101316.54
2019-06-08T18:03:27.936Z,101315.37
2019-06-08T18:05:53.921Z,101306.92
2019-06-08T18:08:19.786Z,101325.33
2019-06-08T18:10:45.683Z,101327.93
2019-06-08T18:13:11.544Z,101335.00
2019-06-08T18:15:39.972Z,101333.20
2019-06-08T18:18:05.189Z,101330.98
2019-06-08T18:20:31.085Z,101328.39
2019-06-08T18:22:57.855Z,101342.66
2019-06-08T18:25:23.948Z,101338.95
2019-06-08T18:28:05.559Z,101346.67
2019-06-08T18:30:19.163Z,101364.27
2019-06-08T18:32:46.346Z,101366.41
2019-06-08T18:35:12.854Z,101372.17
2019-06-08T18:37:40.899Z,101364.30
2019-06-08T18:40:07.262Z,101364.91
2019-06-08T18:42:33.162Z,101369.73
2019-06-08T18:44:59.047Z,101362.50
2019-06-08T18:47:27.266Z,101372.20
2019-06-08T18:49:52.700Z,101368.45
2019-06-08T18:52:18.577Z,101378.91
2019-06-08T18:54:45.763Z,101397.84
2019-06-08T18:57:12.362Z,101412.90
2019-06-08T18:59:43.151Z,101379.55
2019-06-08T19:02:07.997Z,101372.36
2019-06-08T19:04:33.974Z,101376.33
2019-06-08T19:07:01.337Z,101380.67
2019-06-08T19:09:27.555Z,101381.05
2019-06-08T19:11:53.440Z,101373.73
2019-06-08T19:14:20.833Z,101378.17
2019-06-08T19:16:51.434Z,101382.70
2019-06-08T19:19:14.649Z,101383.84
2019-06-08T19:21:40.802Z,101384.89
2019-06-08T19:24:09.624Z,101386.14
2019-06-08T19:26:34.488Z,101393.05
2019-06-08T19:29:00.572Z,101391.58
2019-06-08T19:31:27.643Z,101396.81
2019-06-08T19:33:53.685Z,101406.78
2019-06-08T19:36:19.539Z,101407.09
2019-06-08T19:38:48.052Z,101389.11
2019-06-08T19:41:13.158Z,101395.80
2019-06-08T19:43:41.508Z,101399.87
2019-06-08T19:46:07.273Z,101403.23
2019-06-08T19:48:33.209Z,101403.78
2019-06-08T19:50:59.058Z,101402.11
2019-06-08T19:53:24.951Z,101398.44
2019-06-08T19:55:53.959Z,101401.14
2019-06-08T19:58:18.609Z,101394.90
2019-06-08T20:00:48.094Z,101405.97
2019-06-08T20:03:12.437Z,101410.45
2019-06-08T20:05:38.292Z,101407.33
2019-06-08T20:08:04.176Z,101417.16
2019-06-08T20:10:30.039Z,101417.16
2019-06-08T20:12:57.619Z,101420.73
2019-06-08T20:15:23.805Z,101424.36
2019-06-08T20:17:51.442Z,101421.23
2019-06-08T20:20:18.364Z,101423.14
2019-06-08T20:22:44.354Z,101421.15
2019-06-08T20:25:10.796Z,101422.59
2019-06-08T20:27:37.279Z,101422.92
2019-06-08T20:30:08.703Z,101417.17
2019-06-08T20:32:32.058Z,101413.82
2019-06-08T20:34:57.936Z,101415.72
2019-06-08T20:37:23.808Z,101420.30
2019-06-08T20:40:02.791Z,101416.86
2019-06-08T20:42:17.505Z,101426.91
2019-06-08T20:44:43.993Z,101432.43
2019-06-08T20:47:09.859Z,101434.84
2019-06-08T20:49:37.263Z,101442.48
2019-06-08T20:52:03.310Z,101443.39
2019-06-08T20:54:29.199Z,101446.13
2019-06-08T20:56:55.066Z,101446.55
2019-06-08T20:59:30.085Z,101447.67
2019-06-08T21:01:50.490Z,101454.05
2019-06-08T21:04:18.186Z,101452.36
2019-06-08T21:06:44.100Z,101456.83
2019-06-08T21:09:09.989Z,101454.44
2019-06-08T21:11:37.945Z,101453.40
2019-06-08T21:14:04.144Z,101454.83
2019-06-08T21:16:30.001Z,101453.69
2019-06-08T21:18:57.912Z,101455.67
2019-06-08T21:21:23.648Z,101461.59
2019-06-08T21:23:53.980Z,101464.77
2019-06-08T21:26:18.406Z,101471.09
2019-06-08T21:28:47.148Z,101461.31
2019-06-08T21:31:12.176Z,101466.18
2019-06-08T21:33:38.098Z,101467.45
2019-06-08T21:36:05.193Z,101475.39
2019-06-08T21:38:31.793Z,101470.67
2019-06-08T21:41:02.076Z,101474.13
2019-06-08T21:43:27.718Z,101470.81
2019-06-08T21:45:54.637Z,101474.13
2019-06-08T21:48:20.996Z,101476.05
2019-06-08T21:50:48.963Z,101481.67
2019-06-08T21:53:14.655Z,101484.99
2019-06-08T21:55:40.545Z,101488.27
2019-06-08T21:58:08.098Z,101485.31
2019-06-08T22:00:42.185Z,101491.28
2019-06-08T22:03:02.743Z,101485.74
2019-06-08T22:05:28.655Z,101490.86
2019-06-08T22:07:54.518Z,101488.12
2019-06-08T22:10:20.412Z,101490.19
2019-06-08T22:12:48.388Z,101488.54
2019-06-08T22:15:14.268Z,101490.27
2019-06-08T22:17:40.133Z,101490.80
2019-06-08T22:20:08.039Z,101492.16
2019-06-08T22:22:34.178Z,101492.27
2019-06-08T22:25:01.149Z,101494.23
2019-06-08T22:27:27.342Z,101489.84
2019-06-08T22:29:53.618Z,101492.66
2019-06-08T22:32:19.577Z,101498.20
2019-06-08T22:34:47.566Z,101502.45
2019-06-08T22:37:13.329Z,101498.09
2019-06-08T22:39:39.190Z,101497.38
2019-06-08T22:42:05.080Z,101512.92
2019-06-08T22:44:30.937Z,101513.56
2019-06-08T22:46:59.844Z,101509.98
2019-06-08T22:49:24.593Z,101509.88
2019-06-08T22:51:50.480Z,101516.03
2019-06-08T22:54:17.062Z,101522.78
2019-06-08T22:56:43.032Z,101513.31
2019-06-08T22:59:09.194Z,101516.53
2019-06-08T23:01:35.287Z,101513.86
2019-06-08T23:04:03.875Z,101520.43
2019-06-08T23:06:28.983Z,101524.78
2019-06-08T23:08:57.022Z,101524.92
2019-06-08T23:11:22.624Z,101521.68
2019-06-08T23:13:48.482Z,101518.00
2019-06-08T23:16:14.345Z,101522.28
2019-06-08T23:18:40.232Z,101527.99
2019-06-08T23:21:08.729Z,101526.31
2019-06-08T23:23:33.870Z,101528.31
2019-06-08T23:26:02.108Z,101527.46
2019-06-08T23:28:28.282Z,101526.11
2019-06-08T23:31:07.953Z,101529.81
2019-06-08T23:33:21.985Z,101527.27
2019-06-08T23:36:21.717Z,101527.52
2019-06-08T23:38:17.275Z,101531.27
2019-06-08T23:40:43.310Z,101531.10
2019-06-08T23:43:09.210Z,101529.81
2019-06-08T23:45:35.080Z,101537.38
2019-06-08T23:48:02.574Z,101530.13
2019-06-08T23:50:28.669Z,101529.59
2019-06-08T23:52:54.556Z,101527.20
2019-06-08T23:55:20.412Z,101526.34
2019-06-08T23:57:46.304Z,101528.02
